Time;durP1;ratioP1;P1;durP2;ratioP2;P2;SDS_P1;SDS_P2;PMS_P1;PMS_P2;Temp;Humidity;BMP_temperature;BMP_pressure;BME280_temperature;BME280_humidity;BME280_pressure;Samples;Min_cycle;Max_cycle;Signal;HPM_P1;HPM_P2
2022/01/10 00:02:00;;;;;;;;;;;;;;;4.02;68.75;100996.88;5082911;28;20853;-71
2022/01/10 00:04:26;;;;;;;;;;;;;;;4.00;69.02;101009.97;5086160;28;19924;-72
2022/01/10 00:06:51;;;;;;;;;;;;;;;3.99;68.53;101013.75;5091102;28;20010;-72
2022/01/10 00:09:16;;;;;;;;;;;;;;;3.99;68.52;101019.25;5092827;28;19967;-71
2022/01/10 00:11:41;;;;;;;;;;;;;;;3.96;68.66;101025.16;5099501;28;19962;-70
2022/01/10 00:14:06;;;;;;;;;;;;;;;3.94;68.60;101032.78;5083612;28;19920;-71
2022/01/10 00:16:32;;;;;;;;;;;;;;;3.93;68.76;101028.34;5093837;28;19924;-71
2022/01/10 00:18:57;;;;;;;;;;;;;;;3.92;69.13;101034.84;5085910;28;19954;-71
2022/01/10 00:21:22;;;;;;;;;;;;;;;3.91;69.05;101042.25;5092278;28;19947;-71
2022/01/10 00:23:47;;;;;;;;;;;;;;;3.91;68.63;101046.91;5093511;28;20446;-70
2022/01/10 00:26:13;;;;;;;;;;;;;;;3.91;68.70;101041.41;5096833;28;19916;-71
2022/01/10 00:28:38;;;;;;;;;;;;;;;3.93;68.53;101044.81;5084837;28;19989;-71
2022/01/10 00:31:03;;;;;;;;;;;;;;;3.92;68.63;101038.44;5080620;28;19921;-71
2022/01/10 00:33:28;;;;;;;;;;;;;;;3.92;68.33;101035.69;5085669;28;19973;-71
2022/01/10 00:35:53;;;;;;;;;;;;;;;3.92;68.85;101034.84;5095095;28;19931;-71
2022/01/10 00:38:18;;;;;;;;;;;;;;;3.90;68.68;101040.56;5099444;28;19924;-70
2022/01/10 00:40:44;;;;;;;;;;;;;;;3.88;68.48;101050.91;5096565;28;19920;-70
2022/01/10 00:43:28;;;;;;;;;;;;;;;3.88;68.51;101050.06;5109855;28;19920;-72
2022/01/10 00:45:54;;;;;;;;;;;;;;;3.87;68.78;101051.94;5089536;28;19930;-72
2022/01/10 00:48:19;;;;;;;;;;;;;;;3.87;68.85;101048.38;5100454;28;19924;-71
2022/01/10 00:50:44;;;;;;;;;;;;;;;3.85;68.73;101055.94;5084152;28;20375;-71
2022/01/10 00:53:10;;;;;;;;;;;;;;;3.83;68.86;101063.56;5098415;28;19921;-71
2022/01/10 00:55:35;;;;;;;;;;;;;;;3.80;68.52;101064.78;5110685;28;19924;-71
2022/01/10 00:58:00;;;;;;;;;;;;;;;3.79;68.71;101078.75;5092253;28;20006;-71
2022/01/10 01:00:26;;;;;;;;;;;;;;;3.76;68.99;101079.13;5099546;28;19928;-71
2022/01/10 01:02:51;;;;;;;;;;;;;;;3.73;68.97;101085.88;5098561;28;19930;-71
2022/01/10 01:05:17;;;;;;;;;;;;;;;3.76;68.92;101087.38;5088985;28;20007;-71
2022/01/10 01:07:42;;;;;;;;;;;;;;;3.74;68.59;101090.34;5078190;28;19947;-71
2022/01/10 01:12:46;;;;;;;;;;;;;;;3.74;69.02;101095.81;5098523;28;20010;-71
2022/01/10 01:15:20;;;;;;;;;;;;;;;3.74;68.95;101104.06;5092413;28;20015;-72
2022/01/10 01:17:59;;;;;;;;;;;;;;;3.75;68.78;101107.66;5091529;28;20040;-71
2022/01/10 01:25:47;;;;;;;;;;;;;;;3.69;68.63;101128.50;5091689;28;19997;-71
2022/01/10 01:28:12;;;;;;;;;;;;;;;3.65;68.71;101128.06;5095350;28;19924;-71
2022/01/10 01:30:38;;;;;;;;;;;;;;;3.63;68.66;101121.94;5096433;28;19916;-71
2022/01/10 01:33:03;;;;;;;;;;;;;;;3.62;68.94;101136.72;5092518;28;21047;-71
2022/01/10 01:35:28;;;;;;;;;;;;;;;3.61;68.52;101140.50;5105521;28;19917;-71
2022/01/10 01:37:55;;;;;;;;;;;;;;;3.61;68.92;101143.22;5105288;28;19931;-71
2022/01/10 01:40:21;;;;;;;;;;;;;;;3.60;69.19;101137.97;5106283;28;19927;-71
2022/01/10 01:42:47;;;;;;;;;;;;;;;3.59;69.11;101142.59;5105506;28;19965;-71
2022/01/10 01:45:12;;;;;;;;;;;;;;;3.62;69.04;101157.84;5092807;28;19920;-71
2022/01/10 01:47:38;;;;;;;;;;;;;;;3.60;68.69;101174.47;5082054;28;19920;-71
2022/01/10 01:50:05;;;;;;;;;;;;;;;3.60;69.04;101173.63;5092282;28;19952;-71
2022/01/10 01:52:30;;;;;;;;;;;;;;;3.59;68.63;101171.94;5076718;28;20010;-71
2022/01/10 01:54:55;;;;;;;;;;;;;;;3.57;68.91;101177.63;5097730;28;20016;-71
2022/01/10 01:57:21;;;;;;;;;;;;;;;3.56;68.35;101181.41;5099976;28;19920;-71
2022/01/10 01:59:46;;;;;;;;;;;;;;;3.55;68.75;101184.38;5093055;28;19919;-71
2022/01/10 02:02:11;;;;;;;;;;;;;;;3.54;68.99;101183.53;5095179;28;19927;-71
2022/01/10 02:04:36;;;;;;;;;;;;;;;3.53;68.49;101195.53;5081361;28;19924;-71
2022/01/10 02:07:02;;;;;;;;;;;;;;;3.53;69.19;101187.31;5082927;28;19928;-71
2022/01/10 02:09:27;;;;;;;;;;;;;;;3.51;68.54;101192.16;5107982;28;19920;-71
2022/01/10 02:11:52;;;;;;;;;;;;;;;3.53;69.13;101200.19;5092509;28;19924;-71
2022/01/10 02:14:18;;;;;;;;;;;;;;;3.52;68.58;101199.34;5098620;28;20006;-71
2022/01/10 02:16:51;;;;;;;;;;;;;;;3.53;68.67;101197.44;5093828;28;19920;-71
2022/01/10 02:19:16;;;;;;;;;;;;;;;3.54;68.53;101202.75;5083269;28;19920;-71
2022/01/10 02:21:42;;;;;;;;;;;;;;;3.54;68.56;101200.00;5112184;28;19916;-71
2022/01/10 02:24:07;;;;;;;;;;;;;;;3.53;68.96;101195.53;5082332;28;20019;-71
2022/01/10 02:26:33;;;;;;;;;;;;;;;3.51;68.64;101202.28;5100340;28;20026;-70
2022/01/10 02:28:58;;;;;;;;;;;;;;;3.51;69.03;101211.38;5087574;28;19927;-71
2022/01/10 02:31:24;;;;;;;;;;;;;;;3.52;68.92;101206.72;5108188;28;20291;-71
2022/01/10 02:33:51;;;;;;;;;;;;;;;3.52;68.59;101215.81;5106782;28;20053;-71
2022/01/10 02:36:24;;;;;;;;;;;;;;;3.52;68.75;101225.94;5100658;28;19927;-71
2022/01/10 02:39:00;;;;;;;;;;;;;;;3.52;68.74;101224.03;5086306;28;20633;-71
2022/01/10 02:41:33;;;;;;;;;;;;;;;3.52;69.07;101226.78;5090707;28;19925;-71
2022/01/10 02:43:58;;;;;;;;;;;;;;;3.51;68.96;101241.56;5102236;28;19931;-70
2022/01/10 02:46:24;;;;;;;;;;;;;;;3.52;69.24;101242.41;5102382;28;19920;-71
2022/01/10 02:48:50;;;;;;;;;;;;;;;3.54;68.68;101249.41;5100591;28;19924;-71
2022/01/10 02:51:15;;;;;;;;;;;;;;;3.54;69.10;101252.16;5084151;28;19929;-71
2022/01/10 02:53:41;;;;;;;;;;;;;;;3.53;69.15;101255.91;5096660;28;19964;-70
2022/01/10 02:56:06;;;;;;;;;;;;;;;3.53;69.30;101260.56;5092405;28;19920;-72
2022/01/10 02:58:31;;;;;;;;;;;;;;;3.54;69.45;101259.53;5094872;28;19920;-72
2022/01/10 03:00:56;;;;;;;;;;;;;;;3.54;69.34;101274.09;5096848;28;19923;-71
2022/01/10 03:03:22;;;;;;;;;;;;;;;3.54;68.87;101276.84;5086158;28;19928;-71
2022/01/10 03:05:47;;;;;;;;;;;;;;;3.56;69.17;101282.13;5077143;28;19956;-71
2022/01/10 03:08:12;;;;;;;;;;;;;;;3.54;68.84;101285.09;5093340;28;20014;-71
2022/01/10 03:10:37;;;;;;;;;;;;;;;3.56;68.91;101284.88;5097785;28;19920;-71
2022/01/10 03:13:02;;;;;;;;;;;;;;;3.56;68.92;101293.09;5088517;28;19920;-70
2022/01/10 03:15:28;;;;;;;;;;;;;;;3.55;68.84;101297.75;5090574;28;19947;-71
2022/01/10 03:17:54;;;;;;;;;;;;;;;3.55;69.30;101296.91;5087420;28;19924;-71
2022/01/10 03:20:19;;;;;;;;;;;;;;;3.57;69.00;101303.03;5094161;28;19924;-71
2022/01/10 03:22:44;;;;;;;;;;;;;;;3.56;69.02;101307.69;5095459;28;19957;-70
2022/01/10 03:25:10;;;;;;;;;;;;;;;3.56;69.54;101307.69;5079531;28;20006;-71
2022/01/10 03:27:35;;;;;;;;;;;;;;;3.54;69.01;101315.28;5096663;28;20386;-71
2022/01/10 03:30:00;;;;;;;;;;;;;;;3.54;69.21;101317.16;5100046;28;19915;-71
2022/01/10 03:32:25;;;;;;;;;;;;;;;3.52;68.68;101314.59;5092872;28;20363;-71
2022/01/10 03:34:51;;;;;;;;;;;;;;;3.52;69.38;101325.59;5093258;28;20336;-71
2022/01/10 03:37:16;;;;;;;;;;;;;;;3.51;69.41;101317.56;5092461;28;19923;-71
2022/01/10 03:39:42;;;;;;;;;;;;;;;3.51;69.03;101328.53;5094432;28;19927;-71
2022/01/10 03:42:07;;;;;;;;;;;;;;;3.50;69.00;101338.66;5101658;28;19934;-70
2022/01/10 03:44:32;;;;;;;;;;;;;;;3.48;69.45;101340.75;5096736;28;20299;-71
2022/01/10 03:46:57;;;;;;;;;;;;;;;3.47;69.04;101355.50;5095646;28;19923;-71
2022/01/10 03:49:23;;;;;;;;;;;;;;;3.46;69.14;101353.81;5079331;28;19990;-71
2022/01/10 03:51:48;;;;;;;;;;;;;;;3.46;69.15;101370.28;5104232;28;20294;-71
2022/01/10 03:54:14;;;;;;;;;;;;;;;3.47;69.37;101368.38;5083304;28;19947;-71
2022/01/10 03:56:39;;;;;;;;;;;;;;;3.47;68.87;101371.13;5086367;28;19932;-71
2022/01/10 03:59:04;;;;;;;;;;;;;;;3.44;69.68;101375.94;5084948;28;19943;-71
2022/01/10 04:01:29;;;;;;;;;;;;;;;3.44;69.76;101372.34;5096922;28;20050;-71
2022/01/10 04:03:55;;;;;;;;;;;;;;;3.46;69.84;101378.53;5080704;28;19931;-71
2022/01/10 04:06:21;;;;;;;;;;;;;;;3.48;69.42;101383.81;5083619;28;19924;-71
2022/01/10 04:08:46;;;;;;;;;;;;;;;3.47;69.58;101385.69;5078951;28;19928;-71
2022/01/10 04:11:11;;;;;;;;;;;;;;;3.48;68.82;101389.28;5085817;28;20899;-71
2022/01/10 04:13:37;;;;;;;;;;;;;;;3.49;69.19;101393.72;5091617;28;19931;-71
2022/01/10 04:16:02;;;;;;;;;;;;;;;3.47;68.99;101390.34;5087117;28;19916;-71
2022/01/10 04:18:27;;;;;;;;;;;;;;;3.47;69.23;101387.59;5080801;28;19920;-71
2022/01/10 04:20:53;;;;;;;;;;;;;;;3.47;69.10;101387.59;5088044;28;19920;-71
2022/01/10 04:23:18;;;;;;;;;;;;;;;3.45;69.15;101390.53;5089706;28;20372;-71
2022/01/10 04:25:43;;;;;;;;;;;;;;;3.48;69.17;101406.59;5087198;28;20035;-71
2022/01/10 04:28:08;;;;;;;;;;;;;;;3.49;69.59;101404.72;5102194;28;19955;-71
2022/01/10 04:30:34;;;;;;;;;;;;;;;3.47;69.66;101404.91;5102156;28;20423;-71
2022/01/10 04:33:01;;;;;;;;;;;;;;;3.48;69.84;101408.50;5101436;28;19928;-71
2022/01/10 04:35:27;;;;;;;;;;;;;;;3.50;69.38;101428.34;5092371;28;19955;-71
2022/01/10 04:37:52;;;;;;;;;;;;;;;3.51;69.45;101419.09;5096635;28;19970;-71
2022/01/10 04:40:17;;;;;;;;;;;;;;;3.54;69.28;101438.78;5098193;28;19980;-71
2022/01/10 04:42:43;;;;;;;;;;;;;;;3.55;69.25;101440.47;5100173;28;19977;-71
2022/01/10 04:45:08;;;;;;;;;;;;;;;3.56;69.54;101447.66;5090238;28;19920;-71
2022/01/10 04:47:33;;;;;;;;;;;;;;;3.55;69.53;101456.94;5098983;28;19972;-71
2022/01/10 04:50:49;;;;;;;;;;;;;;;3.56;69.39;101457.78;5094353;28;19928;-71
2022/01/10 04:52:51;;;;;;;;;;;;;;;3.54;69.43;101460.75;5097997;28;19923;-71
2022/01/10 04:55:16;;;;;;;;;;;;;;;3.54;69.55;101466.22;5092187;28;19920;-70
2022/01/10 04:57:41;;;;;;;;;;;;;;;3.53;69.32;101472.75;5087722;28;19920;-71
2022/01/10 05:00:08;;;;;;;;;;;;;;;3.54;69.37;101476.38;5092100;28;19973;-71
2022/01/10 05:02:33;;;;;;;;;;;;;;;3.54;69.39;101476.38;5103213;28;19965;-71
2022/01/10 05:04:58;;;;;;;;;;;;;;;3.55;69.88;101502.75;5095741;28;19920;-72
2022/01/10 05:07:23;;;;;;;;;;;;;;;3.56;70.12;101499.81;5080020;28;20061;-71
2022/01/10 05:09:49;;;;;;;;;;;;;;;3.56;69.42;101502.56;5094253;28;19926;-71
2022/01/10 05:12:14;;;;;;;;;;;;;;;3.57;70.04;101520.72;5096916;28;19994;-71
2022/01/10 05:14:40;;;;;;;;;;;;;;;3.59;70.05;101523.28;5098880;28;20417;-71
2022/01/10 05:17:05;;;;;;;;;;;;;;;3.62;69.87;101518.28;5090934;28;20339;-71
2022/01/10 05:19:30;;;;;;;;;;;;;;;3.64;69.59;101523.56;5096268;28;19916;-71
2022/01/10 05:21:56;;;;;;;;;;;;;;;3.64;69.85;101532.66;5094293;28;19923;-71
2022/01/10 05:24:21;;;;;;;;;;;;;;;3.63;70.07;101522.72;5084625;28;19974;-71
2022/01/10 05:26:46;;;;;;;;;;;;;;;3.61;69.57;101526.69;5084693;28;19920;-71
2022/01/10 05:29:11;;;;;;;;;;;;;;;3.61;70.15;101546.75;5091446;28;19924;-71
2022/01/10 05:31:36;;;;;;;;;;;;;;;3.61;70.00;101543.16;5091925;28;19939;-71
2022/01/10 05:34:01;;;;;;;;;;;;;;;3.62;70.05;101547.63;5105739;28;19920;-71
2022/01/10 05:36:27;;;;;;;;;;;;;;;3.61;69.92;101552.25;5106643;28;19973;-71
2022/01/10 05:38:52;;;;;;;;;;;;;;;3.62;69.66;101561.34;5095718;28;20378;-71
2022/01/10 05:41:21;;;;;;;;;;;;;;;3.62;69.66;101575.06;5096701;28;19927;-72
2022/01/10 05:43:46;;;;;;;;;;;;;;;3.63;69.81;101569.38;5098871;28;20475;-71
2022/01/10 05:46:13;;;;;;;;;;;;;;;3.61;70.00;101571.44;5099151;28;19933;-71
2022/01/10 05:48:40;;;;;;;;;;;;;;;3.61;70.09;101570.59;5104964;28;19920;-71
2022/01/10 05:51:07;;;;;;;;;;;;;;;3.60;70.16;101572.50;5097905;28;19939;-71
2022/01/10 05:53:32;;;;;;;;;;;;;;;3.60;69.93;101585.38;5096018;28;19920;-71
2022/01/10 05:55:57;;;;;;;;;;;;;;;3.59;70.01;101592.75;5090871;28;20640;-71
2022/01/10 05:58:23;;;;;;;;;;;;;;;3.60;70.20;101583.47;5100409;28;19924;-71
2022/01/10 06:00:48;;;;;;;;;;;;;;;3.62;69.96;101589.66;5096467;28;19920;-71
2022/01/10 06:03:13;;;;;;;;;;;;;;;3.63;70.09;101585.84;5087601;28;19920;-71
2022/01/10 06:05:39;;;;;;;;;;;;;;;3.64;69.78;101592.19;5097961;28;20378;-71
2022/01/10 06:08:05;;;;;;;;;;;;;;;3.64;69.79;101600.44;5106702;28;20053;-71
2022/01/10 06:10:30;;;;;;;;;;;;;;;3.64;69.79;101614.16;5100377;28;19916;-71
2022/01/10 06:12:56;;;;;;;;;;;;;;;3.63;70.15;101610.56;5100097;28;19966;-71
2022/01/10 06:15:21;;;;;;;;;;;;;;;3.63;69.61;101616.06;5094540;28;19975;-71
2022/01/10 06:17:47;;;;;;;;;;;;;;;3.63;70.28;101605.06;5093219;28;19993;-71
2022/01/10 06:20:12;;;;;;;;;;;;;;;3.63;69.66;101623.44;5094725;28;19935;-71
2022/01/10 06:22:37;;;;;;;;;;;;;;;3.63;70.12;101620.69;5090739;28;19916;-70
2022/01/10 06:25:03;;;;;;;;;;;;;;;3.64;70.18;101625.13;5082909;28;19999;-71
2022/01/10 06:27:29;;;;;;;;;;;;;;;3.66;70.26;101636.81;5099526;28;20333;-71
2022/01/10 06:29:54;;;;;;;;;;;;;;;3.67;70.34;101639.34;5096122;28;19954;-71
2022/01/10 06:32:19;;;;;;;;;;;;;;;3.69;70.24;101650.13;5094300;28;19935;-70
2022/01/10 06:34:44;;;;;;;;;;;;;;;3.70;70.19;101654.59;5094230;28;19920;-71
2022/01/10 06:37:09;;;;;;;;;;;;;;;3.68;70.22;101654.78;5088763;28;19927;-71
2022/01/10 06:39:34;;;;;;;;;;;;;;;3.67;70.42;101664.06;5091829;28;20069;-71
2022/01/10 06:42:00;;;;;;;;;;;;;;;3.68;70.41;101671.25;5090994;28;19924;-72
2022/01/10 06:44:25;;;;;;;;;;;;;;;3.69;69.99;101677.56;5093018;28;19959;-72
2022/01/10 06:46:51;;;;;;;;;;;;;;;3.71;70.15;101674.66;5091921;28;19946;-71
2022/01/10 06:49:16;;;;;;;;;;;;;;;3.69;70.40;101681.22;5097049;28;19916;-72
2022/01/10 06:51:41;;;;;;;;;;;;;;;3.71;70.46;101680.16;5089787;28;19946;-71
2022/01/10 06:54:06;;;;;;;;;;;;;;;3.72;70.34;101684.59;5091699;28;19928;-72
2022/01/10 06:56:31;;;;;;;;;;;;;;;3.72;69.98;101687.34;5092312;28;19920;-72
2022/01/10 06:58:57;;;;;;;;;;;;;;;3.71;70.15;101689.25;5089922;28;19920;-72
2022/01/10 07:01:22;;;;;;;;;;;;;;;3.71;69.89;101691.13;5094563;28;19970;-71
2022/01/10 07:03:48;;;;;;;;;;;;;;;3.71;70.33;101697.47;5092171;28;19920;-72
2022/01/10 07:06:13;;;;;;;;;;;;;;;3.68;70.06;101712.41;5091256;28;20018;-71
2022/01/10 07:08:38;;;;;;;;;;;;;;;3.72;70.59;101712.06;5091520;28;20034;-71
2022/01/10 07:11:03;;;;;;;;;;;;;;;3.72;70.34;101728.53;5088597;28;19920;-71
2022/01/10 07:13:29;;;;;;;;;;;;;;;3.69;70.12;101730.63;5096333;28;19920;-71
2022/01/10 07:15:54;;;;;;;;;;;;;;;3.69;70.19;101736.13;5097144;28;20374;-71
2022/01/10 07:18:19;;;;;;;;;;;;;;;3.70;70.15;101736.97;5090148;28;19924;-71
2022/01/10 07:20:44;;;;;;;;;;;;;;;3.70;70.04;101736.97;5086627;28;19928;-71
2022/01/10 07:23:10;;;;;;;;;;;;;;;3.71;70.20;101740.56;5092325;28;19920;-71
2022/01/10 07:25:35;;;;;;;;;;;;;;;3.71;70.07;101746.06;5081797;28;19966;-71
2022/01/10 07:28:00;;;;;;;;;;;;;;;3.72;69.97;101753.25;5089063;28;19927;-71
2022/01/10 07:30:26;;;;;;;;;;;;;;;3.74;70.61;101767.66;5092513;28;20363;-72
2022/01/10 07:32:52;;;;;;;;;;;;;;;3.72;70.06;101764.22;5089329;28;19936;-71
2022/01/10 07:35:17;;;;;;;;;;;;;;;3.69;70.08;101777.31;5093178;28;19916;-71
2022/01/10 07:37:42;;;;;;;;;;;;;;;3.69;70.03;101782.78;5093627;28;19966;-71
2022/01/10 07:40:07;;;;;;;;;;;;;;;3.68;69.87;101786.56;5106387;28;19916;-71
2022/01/10 07:42:33;;;;;;;;;;;;;;;3.68;70.34;101786.56;5085265;28;19925;-71
2022/01/10 07:44:58;;;;;;;;;;;;;;;3.65;70.43;101797.91;5104041;28;19923;-71
2022/01/10 07:47:23;;;;;;;;;;;;;;;3.64;70.42;101801.69;5094870;28;19924;-71
2022/01/10 07:49:48;;;;;;;;;;;;;;;3.63;70.64;101804.63;5088057;28;19975;-72
2022/01/10 07:52:14;;;;;;;;;;;;;;;3.62;70.33;101817.50;5092533;28;19928;-71
2022/01/10 07:54:39;;;;;;;;;;;;;;;3.63;69.94;101816.47;5095162;28;20362;-72
2022/01/10 07:57:04;;;;;;;;;;;;;;;3.62;70.59;101820.25;5087606;28;19924;-65
2022/01/10 07:59:29;;;;;;;;;;;;;;;3.61;70.41;101834.16;5078502;28;20295;-67
2022/01/10 08:01:55;;;;;;;;;;;;;;;3.62;70.79;101836.72;5085440;28;19915;-68
2022/01/10 08:04:20;;;;;;;;;;;;;;;3.77;70.62;101839.50;5081797;28;19931;-67
2022/01/10 08:06:45;;;;;;;;;;;;;;;3.83;70.86;101848.91;5078653;28;19924;-67
2022/01/10 08:09:11;;;;;;;;;;;;;;;3.86;70.49;101854.91;5087628;28;19924;-66
2022/01/10 08:11:36;;;;;;;;;;;;;;;3.85;70.28;101852.31;5088477;28;19923;-67
2022/01/10 08:14:02;;;;;;;;;;;;;;;3.82;69.82;101858.19;5102056;28;19920;-66
2022/01/10 08:16:28;;;;;;;;;;;;;;;3.78;70.36;101860.44;5088317;28;19923;-65
2022/01/10 08:18:53;;;;;;;;;;;;;;;3.77;70.24;101863.38;5082591;28;20602;-65
2022/01/10 08:21:18;;;;;;;;;;;;;;;3.75;70.19;101880.03;5089775;28;20489;-63
2022/01/10 08:23:43;;;;;;;;;;;;;;;3.73;70.32;101884.00;5086112;28;19928;-65
2022/01/10 08:26:09;;;;;;;;;;;;;;;3.72;70.31;101885.88;5082228;28;20291;-66
2022/01/10 08:28:34;;;;;;;;;;;;;;;3.73;70.03;101881.25;5088882;28;19920;-64
2022/01/10 08:31:00;;;;;;;;;;;;;;;3.72;70.05;101896.03;5081944;28;19942;-64
2022/01/10 08:33:25;;;;;;;;;;;;;;;3.71;69.94;101888.81;5085996;28;19927;-64
2022/01/10 08:35:51;;;;;;;;;;;;;;;3.73;70.11;101903.22;5089556;28;19920;-64
2022/01/10 08:38:16;;;;;;;;;;;;;;;3.72;70.00;101907.84;5079429;28;19928;-66
2022/01/10 08:40:42;;;;;;;;;;;;;;;3.73;70.11;101917.78;5082511;28;20367;-66
2022/01/10 08:43:10;;;;;;;;;;;;;;;3.73;70.22;101926.03;5088982;28;20007;-64
2022/01/10 08:45:35;;;;;;;;;;;;;;;3.73;70.42;101930.66;5078812;28;19935;-66
2022/01/10 08:48:00;;;;;;;;;;;;;;;3.72;70.56;101943.56;5080379;28;20287;-63
2022/01/10 08:50:27;;;;;;;;;;;;;;;3.74;70.38;101944.25;5086116;28;19944;-62
2022/01/10 08:52:52;;;;;;;;;;;;;;;3.76;70.01;101949.53;5087127;28;19921;-63
2022/01/10 08:55:18;;;;;;;;;;;;;;;3.74;69.84;101952.47;5076098;28;19935;-68
2022/01/10 08:57:43;;;;;;;;;;;;;;;3.75;70.01;101962.41;5084853;28;19928;-60
2022/01/10 09:00:09;;;;;;;;;;;;;;;3.74;70.45;101960.72;5081978;28;19929;-60
2022/01/10 09:02:34;;;;;;;;;;;;;;;3.75;70.19;101967.06;5084431;28;19973;-65
2022/01/10 09:05:00;;;;;;;;;;;;;;;3.78;70.50;101978.53;5089418;28;19966;-65
2022/01/10 09:07:25;;;;;;;;;;;;;;;3.80;70.24;101981.09;5091390;28;19931;-66
2022/01/10 09:09:50;;;;;;;;;;;;;;;3.87;71.72;101979.34;5084834;28;19956;-66
2022/01/10 09:12:15;;;;;;;;;;;;;;;3.90;70.24;101970.75;5081362;28;19959;-66
2022/01/10 09:14:40;;;;;;;;;;;;;;;3.89;70.61;101982.75;5091073;28;19927;-66
2022/01/10 09:17:06;;;;;;;;;;;;;;;4.02;71.25;101993.16;5086689;28;19927;-64
2022/01/10 09:19:31;;;;;;;;;;;;;;;4.03;70.87;101990.22;5084955;28;20006;-64
2022/01/10 09:21:56;;;;;;;;;;;;;;;4.00;70.35;102001.56;5089960;28;21646;-64
2022/01/10 09:24:22;;;;;;;;;;;;;;;3.99;70.52;101997.09;5089214;28;19943;-64
2022/01/10 09:26:47;;;;;;;;;;;;;;;3.99;70.19;102004.50;5079417;28;19928;-65
2022/01/10 09:29:12;;;;;;;;;;;;;;;3.95;70.43;102006.75;5081072;28;20622;-64
2022/01/10 09:31:38;;;;;;;;;;;;;;;3.94;70.13;102011.41;5095059;28;19966;-63
2022/01/10 09:34:03;;;;;;;;;;;;;;;3.96;70.49;102019.44;5099702;28;19955;-64
2022/01/10 09:36:29;;;;;;;;;;;;;;;3.96;70.42;102008.44;5084798;28;20022;-64
2022/01/10 09:38:55;;;;;;;;;;;;;;;3.96;70.28;102015.84;5091761;28;19968;-68
2022/01/10 09:41:20;;;;;;;;;;;;;;;3.93;70.22;102008.84;5089837;28;19932;-67
2022/01/10 09:43:56;;;;;;;;;;;;;;;3.93;70.16;102017.06;5097764;28;20355;-65
2022/01/10 09:46:21;;;;;;;;;;;;;;;3.90;70.34;102023.78;5086059;28;20273;-67
2022/01/10 09:48:46;;;;;;;;;;;;;;;3.88;70.24;102022.25;5103037;28;19923;-69
2022/01/10 09:51:12;;;;;;;;;;;;;;;3.85;70.35;102023.47;5080621;28;19927;-70
2022/01/10 09:53:37;;;;;;;;;;;;;;;3.86;69.66;102033.41;5095461;28;20061;-70
2022/01/10 09:56:05;;;;;;;;;;;;;;;3.87;70.30;102031.53;5096411;28;19921;-69
2022/01/10 09:58:30;;;;;;;;;;;;;;;3.95;70.02;102036.97;5084574;28;19935;-71
2022/01/10 10:00:56;;;;;;;;;;;;;;;4.06;70.12;102041.19;5094936;28;19931;-70
2022/01/10 10:03:22;;;;;;;;;;;;;;;4.19;69.83;102053.28;5094253;28;20011;-70
2022/01/10 10:05:50;;;;;;;;;;;;;;;4.33;69.66;102056.31;5084577;28;19948;-68
2022/01/10 10:08:16;;;;;;;;;;;;;;;4.45;70.25;102056.75;5068661;28;19929;-68
2022/01/10 10:10:41;;;;;;;;;;;;;;;4.60;69.60;102061.25;5079366;28;19939;-69
2022/01/10 10:13:06;;;;;;;;;;;;;;;4.72;69.41;102063.59;5066122;28;19948;-71
2022/01/10 10:15:32;;;;;;;;;;;;;;;4.76;69.44;102073.16;5066274;28;19928;-69
2022/01/10 10:17:58;;;;;;;;;;;;;;;4.80;69.47;102071.75;5075810;28;19929;-69
2022/01/10 10:20:23;;;;;;;;;;;;;;;4.82;69.34;102086.16;5079722;28;19924;-67
2022/01/10 10:22:50;;;;;;;;;;;;;;;4.88;69.74;102093.69;5082363;28;19928;-71
2022/01/10 10:25:16;;;;;;;;;;;;;;;4.96;69.35;102103.78;5082288;28;19921;-68
2022/01/10 10:27:43;;;;;;;;;;;;;;;5.02;69.45;102116.78;5071289;28;20428;-69
2022/01/10 10:30:14;;;;;;;;;;;;;;;5.03;69.43;102116.59;5085318;28;19920;-71
2022/01/10 10:32:39;;;;;;;;;;;;;;;5.02;69.37;102117.63;5099152;28;19940;-70
2022/01/10 10:35:06;;;;;;;;;;;;;;;5.01;69.43;102113.16;5088121;28;19924;-71
2022/01/10 10:37:35;;;;;;;;;;;;;;;5.05;69.23;102113.66;5090918;28;19920;-71
2022/01/10 10:40:02;;;;;;;;;;;;;;;5.08;69.76;102118.78;5093038;28;19978;-71
2022/01/10 10:42:29;;;;;;;;;;;;;;;5.15;69.71;102130.78;5089051;28;19973;-66
2022/01/10 10:44:54;;;;;;;;;;;;;;;5.24;69.27;102120.53;5084518;28;19934;-68
2022/01/10 10:47:21;;;;;;;;;;;;;;;5.32;69.16;102120.44;5081238;28;19920;-73
2022/01/10 10:49:50;;;;;;;;;;;;;;;5.39;69.07;102121.41;5086247;28;19916;-74
2022/01/10 10:52:15;;;;;;;;;;;;;;;5.42;68.80;102121.03;5087767;28;19920;-71
2022/01/10 10:54:41;;;;;;;;;;;;;;;5.42;69.46;102121.03;5095665;28;21363;-71
2022/01/10 10:57:08;;;;;;;;;;;;;;;5.47;68.97;102124.09;5093103;28;19920;-71
2022/01/10 10:59:36;;;;;;;;;;;;;;;5.56;69.03;102131.19;5093514;28;19963;-71
2022/01/10 11:02:02;;;;;;;;;;;;;;;5.62;69.46;102124.94;5092130;28;20469;-72
2022/01/10 11:04:29;;;;;;;;;;;;;;;5.66;68.61;102131.78;5093473;28;20002;-71
2022/01/10 11:06:54;;;;;;;;;;;;;;;5.69;68.66;102140.69;5093632;28;19978;-72
2022/01/10 11:09:20;;;;;;;;;;;;;;;5.75;69.07;102149.06;5095691;28;19924;-70
2022/01/10 11:11:46;;;;;;;;;;;;;;;5.81;69.12;102151.06;5090060;28;19920;-71
2022/01/10 11:14:15;;;;;;;;;;;;;;;5.88;68.78;102156.66;5102003;28;19916;-72
2022/01/10 11:16:42;;;;;;;;;;;;;;;5.87;68.45;102158.56;5080630;28;19924;-71
2022/01/10 11:19:14;;;;;;;;;;;;;;;5.89;68.45;102163.88;5102298;28;19920;-71
2022/01/10 11:21:40;;;;;;;;;;;;;;;5.93;68.37;102162.50;5085781;28;19936;-71
2022/01/10 11:24:06;;;;;;;;;;;;;;;5.97;68.62;102172.09;5099502;28;20351;-71
2022/01/10 11:26:41;;;;;;;;;;;;;;;6.02;68.43;102169.63;5102698;28;19967;-71
2022/01/10 11:29:08;;;;;;;;;;;;;;;6.06;68.60;102179.22;5099316;28;19920;-71
2022/01/10 11:31:34;;;;;;;;;;;;;;;6.08;68.65;102179.88;5111042;28;19970;-71
2022/01/10 11:33:59;;;;;;;;;;;;;;;6.09;68.87;102175.22;5090275;28;19920;-71
2022/01/10 11:36:26;;;;;;;;;;;;;;;6.10;68.72;102180.56;5088267;28;20063;-71
2022/01/10 11:38:56;;;;;;;;;;;;;;;6.13;68.43;102182.06;5094301;28;19920;-71
2022/01/10 11:41:22;;;;;;;;;;;;;;;6.15;68.58;102183.59;5080648;28;19924;-71
2022/01/10 11:43:56;;;;;;;;;;;;;;;6.15;69.05;102179.97;5109497;28;19916;-71
2022/01/10 11:46:40;;;;;;;;;;;;;;;6.17;68.95;102179.78;5097840;28;19920;-71
2022/01/10 11:49:08;;;;;;;;;;;;;;;6.20;68.61;102183.00;5085142;28;19920;-72
2022/01/10 11:51:34;;;;;;;;;;;;;;;6.24;68.55;102180.72;5084272;28;20056;-71
2022/01/10 11:54:11;;;;;;;;;;;;;;;6.25;68.23;102190.69;5086319;28;19920;-65
2022/01/10 11:56:37;;;;;;;;;;;;;;;6.25;68.66;102194.34;5082470;28;19963;-69
2022/01/10 11:59:10;;;;;;;;;;;;;;;6.24;68.64;102197.25;5092574;28;19920;-66
2022/01/10 12:01:36;;;;;;;;;;;;;;;6.24;68.27;102200.03;5079659;28;20008;-67
2022/01/10 12:04:04;;;;;;;;;;;;;;;6.24;68.46;102206.38;5080598;28;20010;-66
2022/01/10 12:06:30;;;;;;;;;;;;;;;6.26;68.38;102211.72;5085461;28;19961;-67
2022/01/10 12:08:58;;;;;;;;;;;;;;;6.27;68.35;102213.44;5091111;28;19920;-67
2022/01/10 12:11:24;;;;;;;;;;;;;;;6.28;68.34;102215.13;5094755;28;19924;-71
2022/01/10 12:13:51;;;;;;;;;;;;;;;6.31;68.52;102225.78;5091312;28;19966;-73
2022/01/10 12:16:16;;;;;;;;;;;;;;;6.34;68.79;102225.41;5093966;28;19928;-71
2022/01/10 12:18:41;;;;;;;;;;;;;;;6.32;68.52;102224.72;5087237;28;20290;-70
2022/01/10 12:21:07;;;;;;;;;;;;;;;6.31;68.50;102226.63;5077204;28;19948;-69
2022/01/10 12:23:32;;;;;;;;;;;;;;;6.29;68.80;102222.38;5093326;28;20279;-72
2022/01/10 12:25:57;;;;;;;;;;;;;;;6.29;68.41;102231.50;5082666;28;19928;-70
2022/01/10 12:28:22;;;;;;;;;;;;;;;6.30;68.57;102235.13;5068476;28;20042;-74
2022/01/10 12:30:47;;;;;;;;;;;;;;;6.31;68.50;102240.44;5074640;28;19931;-72
2022/01/10 12:33:13;;;;;;;;;;;;;;;6.30;68.75;102240.63;5088082;28;19927;-69
2022/01/10 12:35:38;;;;;;;;;;;;;;;6.27;68.38;102250.13;5079301;28;20383;-70
2022/01/10 12:38:03;;;;;;;;;;;;;;;6.23;68.91;102245.19;5083720;28;19920;-74
2022/01/10 12:40:31;;;;;;;;;;;;;;;6.18;68.29;102258.69;5080290;28;20383;-73
2022/01/10 12:42:57;;;;;;;;;;;;;;;6.12;68.26;102260.28;5087736;28;20770;-74
2022/01/10 12:45:22;;;;;;;;;;;;;;;6.08;68.62;102272.75;5091959;28;19935;-74
2022/01/10 12:47:48;;;;;;;;;;;;;;;6.05;68.60;102273.13;5096228;28;19924;-75
2022/01/10 12:50:13;;;;;;;;;;;;;;;6.00;68.61;102276.44;5074753;28;19924;-75